CYXS

Prince George Airport

Prince George, British Columbia, Canada
METAR CYXS 202000Z AUTO VRB04KT 9SM CLR 22/03 A3027 RMK SLP263 DENSITY ALT 3100FT
Observed Flight Rules
Aug-20 @ 20:00 UTC (29 minutes ago) Visual Flight Rules
Wind Visibility Clouds
Variable at 4 knots 9 miles
  • Clear skies
Temperatures Readings
Current 22°C / 72°F
Dewpoint 3°C / 37°F
Humidity 29%
Altimeter 30.27" Hg
Pressure 1026.3 hPa
Elevation 691
METAR CYXS 202000Z AUTO VRB04KT 9SM CLR 22/03 A3027 RMK SLP263 DENSITY ALT 3100FT
Observed Flight Rules
Aug-20 @ 20:00 UTC
(29 minutes ago)
VFR
Wind Visibility
Variable at 4 knots 9 miles
Clouds
  • Clear skies
Temperature Dewpoint
22°C / 72°F 3°C / 37°F
Humidity Altimeter Pressure
29% 30.27" Hg 1026.3 hPa